Time;durP1;ratioP1;P1;durP2;ratioP2;P2;SDS_P1;SDS_P2;PMS_P1;PMS_P2;Temp;Humidity;BMP_temperature;BMP_pressure;BME280_temperature;BME280_humidity;BME280_pressure;Samples;Min_cycle;Max_cycle;Signal;HPM_P1;HPM_P2
2023/12/21 00:01:36;;;;;;;8.73;1.65;;;;;;;-146.27;83.88;32331.19;5069937;28;20016;-71
2023/12/21 00:04:02;;;;;;;9.00;1.67;;;;;;;-146.27;83.94;32327.22;5068489;28;20028;-70
2023/12/21 00:06:28;;;;;;;11.57;1.83;;;;;;;-146.27;83.95;32285.56;5067393;28;20025;-71
2023/12/21 00:08:53;;;;;;;16.80;2.25;;;;;;;-146.27;84.23;32353.00;5065334;28;20033;-72
2023/12/21 00:11:18;;;;;;;17.17;2.47;;;;;;;-146.27;84.13;32283.59;5068676;28;20031;-73
2023/12/21 00:13:44;;;;;;;10.40;2.15;;;;;;;-146.27;84.88;32390.69;5067181;28;20115;-71
2023/12/21 00:16:10;;;;;;;15.07;2.03;;;;;;;-146.27;83.39;32196.31;5069997;28;20520;-71
2023/12/21 00:18:35;;;;;;;14.88;1.95;;;;;;;-146.27;84.11;32255.81;5064874;28;20507;-71
2023/12/21 00:21:01;;;;;;;6.50;1.55;;;;;;;-146.27;83.60;32283.59;5052928;28;20022;-71
2023/12/21 00:23:26;;;;;;;13.60;1.92;;;;;;;-146.27;83.68;32291.50;5068660;28;20032;-71
2023/12/21 00:25:51;;;;;;;10.73;1.52;;;;;;;-146.27;84.19;32356.97;5071491;28;20048;-70
2023/12/21 00:28:17;;;;;;;14.63;2.33;;;;;;;-146.27;83.70;32295.47;5087459;28;20024;-70
2023/12/21 00:30:42;;;;;;;19.80;2.03;;;;;;;-146.27;83.85;32347.06;5075370;28;20028;-70
2023/12/21 00:33:08;;;;;;;16.13;2.55;;;;;;;-146.27;84.22;32372.84;5058862;28;20494;-71
2023/12/21 00:35:33;;;;;;;16.13;2.83;;;;;;;-146.27;83.82;32267.72;5064172;28;20028;-72
2023/12/21 00:38:00;;;;;;;10.48;1.63;;;;;;;-146.27;84.28;32382.75;5067555;28;20043;-71
2023/12/21 00:40:26;;;;;;;12.35;1.65;;;;;;;-146.27;84.51;32347.06;5065321;28;20040;-71
2023/12/21 00:42:51;;;;;;;17.40;2.47;;;;;;;-146.27;84.19;32271.69;5064285;28;20519;-71
2023/12/21 00:45:16;;;;;;;12.85;2.90;;;;;;;-146.27;84.76;32406.56;5069138;28;20024;-71
2023/12/21 00:47:42;;;;;;;18.50;2.95;;;;;;;-146.27;84.33;32303.41;5069914;28;20025;-72
2023/12/21 00:50:08;;;;;;;11.77;2.10;;;;;;;-146.27;83.17;32190.34;5061314;28;20025;-71
2023/12/21 00:52:33;;;;;;;12.02;3.00;;;;;;;-146.27;84.19;32323.25;5061965;28;20044;-72
2023/12/21 00:54:58;;;;;;;16.42;2.08;;;;;;;-146.27;84.58;32307.38;5069511;28;20028;-71
2023/12/21 00:57:24;;;;;;;12.68;1.75;;;;;;;-146.27;84.94;32351.03;5070300;28;20435;-71
2023/12/21 00:59:49;;;;;;;10.75;2.00;;;;;;;-146.27;84.36;32291.50;5053560;28;20082;-71
2023/12/21 01:02:14;;;;;;;10.18;1.85;;;;;;;-146.27;84.39;32279.63;5067453;28;20025;-70
2023/12/21 01:04:40;;;;;;;7.47;1.50;;;;;;;-146.27;84.45;32335.16;5064634;28;20058;-71
2023/12/21 01:07:05;;;;;;;15.70;1.92;;;;;;;-146.27;84.67;32370.84;5051904;28;20495;-70
2023/12/21 01:09:30;;;;;;;9.50;2.42;;;;;;;-146.27;84.18;32315.31;5067504;28;20377;-72
2023/12/21 01:11:56;;;;;;;13.23;1.88;;;;;;;-146.27;84.63;32347.06;5051478;28;20083;-71
2023/12/21 01:14:22;;;;;;;10.30;1.75;;;;;;;-146.27;84.69;32307.38;5075505;28;20013;-72
2023/12/21 01:16:47;;;;;;;10.63;1.83;;;;;;;-146.27;84.72;32376.81;5085669;28;20031;-71
2023/12/21 01:19:13;;;;;;;11.50;1.50;;;;;;;-146.27;84.44;32339.13;5050634;28;20031;-72
2023/12/21 01:21:38;;;;;;;14.57;1.83;;;;;;;-146.27;84.42;32339.13;5067077;28;20158;-71
2023/12/21 01:24:05;;;;;;;10.75;1.65;;;;;;;-146.27;84.33;32301.44;5055015;28;20485;-72
2023/12/21 01:26:30;;;;;;;9.98;1.85;;;;;;;-146.27;83.87;32277.63;5067831;28;20105;-71
2023/12/21 01:28:56;;;;;;;10.65;1.90;;;;;;;-146.27;83.60;32241.94;5059232;28;20068;-71
2023/12/21 01:31:21;;;;;;;16.00;1.75;;;;;;;-146.27;84.64;32299.44;5068642;28;20050;-72
2023/12/21 01:33:47;;;;;;;10.27;1.55;;;;;;;-146.27;84.52;32313.34;5063134;28;20028;-73
2023/12/21 01:36:12;;;;;;;12.20;1.80;;;;;;;-146.27;85.38;32416.47;5068862;28;20039;-71
2023/12/21 01:38:37;;;;;;;14.57;2.60;;;;;;;-146.27;84.72;32323.25;5055805;28;20198;-71
2023/12/21 01:41:03;;;;;;;9.68;1.88;;;;;;;-146.27;84.03;32259.78;5069642;28;20396;-70
2023/12/21 01:43:28;;;;;;;11.07;1.65;;;;;;;-146.27;85.02;32311.34;5061885;28;20041;-70
2023/12/21 01:45:56;;;;;;;13.60;1.77;;;;;;;-146.27;84.29;32267.72;5052790;28;20044;-70
2023/12/21 01:48:22;;;;;;;9.25;1.67;;;;;;;-146.27;84.73;32353.00;5051952;28;20598;-72
2023/12/21 01:50:48;;;;;;;10.45;2.33;;;;;;;-146.27;84.39;32297.47;5063729;28;20029;-72
2023/12/21 01:53:15;;;;;;;13.82;2.03;;;;;;;-146.27;84.57;32299.44;5070362;28;20047;-71
2023/12/21 01:55:42;;;;;;;10.65;1.63;;;;;;;-146.27;85.03;32307.38;5066851;28;20464;-71
2023/12/21 01:58:08;;;;;;;9.05;1.85;;;;;;;-146.27;85.23;32331.19;5066848;28;20462;-71
2023/12/21 02:00:34;;;;;;;7.05;1.73;;;;;;;-146.27;84.83;32347.06;5067907;28;20139;-70
2023/12/21 02:03:00;;;;;;;20.65;2.40;;;;;;;-146.27;84.88;32335.16;5070573;28;20119;-71
2023/12/21 02:05:26;;;;;;;23.38;2.80;;;;;;;-146.27;85.04;32370.84;5068091;28;20029;-72
2023/12/21 02:07:51;;;;;;;12.00;2.33;;;;;;;-146.27;85.72;32378.78;5068390;28;20569;-71
2023/12/21 02:10:17;;;;;;;16.45;2.95;;;;;;;-146.27;85.17;32323.25;5069620;28;20047;-72
2023/12/21 02:12:42;;;;;;;6.82;2.05;;;;;;;-146.27;85.34;32343.09;5065872;28;20035;-72
2023/12/21 02:15:08;;;;;;;18.02;2.28;;;;;;;-146.27;85.02;32293.50;5067295;28;20029;-71
2023/12/21 02:17:34;;;;;;;13.93;2.47;;;;;;;-146.27;85.13;32333.16;5064219;28;20098;-71
2023/12/21 02:20:00;;;;;;;13.57;2.35;;;;;;;-146.27;86.06;32450.22;5078895;28;20139;-72
2023/12/21 02:22:27;;;;;;;19.13;3.20;;;;;;;-146.27;85.58;32353.00;5071557;28;20096;-71
2023/12/21 02:24:52;;;;;;;14.80;2.45;;;;;;;-146.27;85.79;32382.75;5069278;28;20036;-71
2023/12/21 02:27:18;;;;;;;9.88;2.08;;;;;;;-146.27;85.38;32355.00;5068983;28;20100;-71
2023/12/21 02:29:43;;;;;;;15.48;3.00;;;;;;;-146.27;85.93;32366.91;5068700;28;20468;-71
2023/12/21 02:32:09;;;;;;;13.23;2.35;;;;;;;-146.27;84.94;32247.88;5063219;28;20383;-72
2023/12/21 02:34:35;;;;;;;18.92;2.08;;;;;;;-146.27;85.48;32303.41;5066540;28;20300;-71
2023/12/21 02:37:00;;;;;;;16.30;1.92;;;;;;;-146.27;86.26;32444.25;5065477;28;20574;-72
2023/12/21 02:39:25;;;;;;;16.73;3.08;;;;;;;-146.27;85.99;32394.66;5074802;28;20125;-71
2023/12/21 02:41:54;;;;;;;20.70;2.22;;;;;;;-146.27;85.36;32323.25;5070109;28;20025;-71
2023/12/21 02:44:19;;;;;;;18.63;2.67;;;;;;;-146.27;85.68;32398.63;5067632;28;20119;-72
2023/12/21 02:46:45;;;;;;;13.98;2.33;;;;;;;-146.27;84.80;32261.75;5077198;28;20112;-71
2023/12/21 02:49:10;;;;;;;18.33;2.45;;;;;;;-146.27;84.67;32271.69;5073153;28;20020;-71
2023/12/21 02:51:35;;;;;;;14.02;2.10;;;;;;;-146.27;85.35;32311.34;5071994;28;20507;-72
2023/12/21 02:54:01;;;;;;;20.27;3.00;;;;;;;-146.27;84.85;32303.41;5067750;28;20650;-71
2023/12/21 02:56:26;;;;;;;16.55;3.13;;;;;;;-146.27;85.56;32315.31;5087227;28;20159;-71
2023/12/21 02:58:51;;;;;;;22.17;2.85;;;;;;;-146.27;85.40;32382.75;5072910;28;20052;-70
2023/12/21 03:01:17;;;;;;;19.73;2.95;;;;;;;-146.27;85.31;32321.28;5072982;28;20032;-70
2023/12/21 03:03:42;;;;;;;11.43;2.72;;;;;;;-146.27;85.19;32299.44;5057673;28;20477;-72
2023/12/21 03:06:08;;;;;;;11.43;1.85;;;;;;;-146.27;85.64;32353.00;5065879;28;20532;-72
2023/12/21 03:08:33;;;;;;;14.65;1.77;;;;;;;-146.27;86.10;32406.56;5066533;28;20032;-73
2023/12/21 03:10:59;;;;;;;15.80;2.08;;;;;;;-146.27;85.59;32323.25;5068779;28;20020;-71
2023/12/21 03:13:24;;;;;;;11.18;2.35;;;;;;;-146.27;85.72;32271.69;5069890;28;20021;-71
2023/12/21 03:15:49;;;;;;;9.55;2.50;;;;;;;-146.27;85.48;32319.28;5052971;28;20503;-72
2023/12/21 03:18:15;;;;;;;18.38;2.30;;;;;;;-146.27;85.75;32341.09;5067041;28;20029;-71
2023/12/21 03:20:40;;;;;;;15.75;2.10;;;;;;;-146.27;85.85;32295.47;5066107;28;20029;-71
2023/12/21 03:23:06;;;;;;;11.60;2.25;;;;;;;-146.27;85.70;32313.34;5067585;28;20102;-72
2023/12/21 03:25:31;;;;;;;18.70;3.25;;;;;;;-146.27;84.84;32271.69;5063632;28;20059;-72
2023/12/21 03:27:57;;;;;;;18.23;2.60;;;;;;;-146.27;85.93;32333.16;5069211;28;20032;-73
2023/12/21 03:30:22;;;;;;;10.07;2.08;;;;;;;-146.27;85.48;32285.56;5068852;28;20032;-71
2023/12/21 03:32:48;;;;;;;16.00;1.85;;;;;;;-146.27;85.89;32347.06;5070710;28;20024;-71
2023/12/21 03:35:13;;;;;;;12.98;1.90;;;;;;;-146.27;86.43;32380.78;5071877;28;20036;-72
2023/12/21 03:37:38;;;;;;;11.38;1.88;;;;;;;-146.27;85.75;32267.72;5070654;28;20020;-70
2023/12/21 03:40:06;;;;;;;12.73;1.55;;;;;;;-146.27;86.41;32325.25;5072780;28;20024;-71
2023/12/21 03:42:32;;;;;;;19.83;2.53;;;;;;;-146.27;86.05;32291.50;5066992;28;20028;-71
2023/12/21 03:44:57;;;;;;;15.77;2.22;;;;;;;-146.27;85.45;32253.81;5070642;28;20079;-71
2023/12/21 03:47:23;;;;;;;7.50;1.80;;;;;;;-146.27;86.48;32325.25;5073051;28;20056;-71
2023/12/21 03:49:48;;;;;;;13.45;2.03;;;;;;;-146.27;85.48;32269.69;5072351;28;20032;-71
2023/12/21 03:52:14;;;;;;;11.15;1.75;;;;;;;-146.27;84.84;32232.00;5067584;28;20024;-71
2023/12/21 03:54:39;;;;;;;18.83;2.20;;;;;;;-146.27;85.86;32329.19;5067030;28;20076;-70
2023/12/21 03:57:05;;;;;;;13.27;1.75;;;;;;;-146.27;86.32;32356.97;5074172;28;20056;-70
2023/12/21 03:59:30;;;;;;;14.88;2.38;;;;;;;-146.27;85.61;32259.78;5070209;28;20047;-72
2023/12/21 04:01:56;;;;;;;14.52;2.53;;;;;;;-146.27;86.25;32331.19;5071157;28;20112;-71
2023/12/21 04:04:22;;;;;;;14.18;2.30;;;;;;;-146.27;85.83;32255.81;5067944;28;20032;-70
2023/12/21 04:06:47;;;;;;;16.38;2.47;;;;;;;-146.27;85.21;32218.13;5068891;28;20029;-71
2023/12/21 04:09:13;;;;;;;15.85;2.40;;;;;;;-146.27;85.78;32311.34;5065627;28;20039;-71
2023/12/21 04:11:38;;;;;;;8.02;1.90;;;;;;;-146.27;86.51;32394.66;5070618;28;20107;-71
2023/12/21 04:14:03;;;;;;;17.77;2.30;;;;;;;-146.27;86.02;32247.88;5067992;28;20036;-73
2023/12/21 04:16:29;;;;;;;10.90;1.48;;;;;;;-146.27;86.02;32329.19;5073075;28;20060;-71
2023/12/21 04:18:54;;;;;;;9.27;2.25;;;;;;;-146.27;86.78;32370.84;5063060;28;20087;-72
2023/12/21 04:21:19;;;;;;;14.52;1.80;;;;;;;-146.27;87.11;32327.22;5066640;28;20033;-72
2023/12/21 04:23:46;;;;;;;17.60;2.30;;;;;;;-146.27;87.00;32321.28;5069982;28;20026;-72
2023/12/21 04:26:21;;;;;;;12.30;1.95;;;;;;;-146.27;87.08;32327.22;5071011;28;20037;-72
2023/12/21 04:28:50;;;;;;;11.82;2.58;;;;;;;-146.27;86.33;32263.75;5060910;28;20032;-72
2023/12/21 04:31:22;;;;;;;16.45;2.08;;;;;;;-146.27;86.97;32315.31;5066616;28;20028;-72
2023/12/21 04:33:49;;;;;;;17.20;2.10;;;;;;;-146.27;86.82;32327.22;5067608;28;20380;-71
2023/12/21 04:36:14;;;;;;;10.30;1.48;;;;;;;-146.27;86.64;32339.13;5070386;28;20171;-71
2023/12/21 04:38:40;;;;;;;13.48;2.03;;;;;;;-146.27;87.35;32418.47;5068791;28;20036;-72
2023/12/21 04:41:05;;;;;;;12.57;2.03;;;;;;;-146.27;86.86;32323.25;5069354;28;20028;-71
2023/12/21 04:43:31;;;;;;;12.30;1.48;;;;;;;-146.27;86.76;32368.88;5061063;28;20056;-71
2023/12/21 04:45:57;;;;;;;8.90;1.75;;;;;;;-146.27;86.49;32303.41;5073098;28;20064;-71
2023/12/21 04:48:22;;;;;;;15.15;2.33;;;;;;;-146.27;87.24;32347.06;5067288;28;20059;-72
2023/12/21 04:50:47;;;;;;;13.77;1.63;;;;;;;-146.27;86.82;32297.47;5061625;28;20369;-72
2023/12/21 04:53:13;;;;;;;14.05;2.22;;;;;;;-146.27;86.51;32307.38;5062133;28;20068;-72
2023/12/21 04:55:38;;;;;;;11.65;1.83;;;;;;;-146.27;87.43;32317.31;5054192;28;20112;-72
2023/12/21 04:58:04;;;;;;;10.55;1.40;;;;;;;-146.27;86.42;32323.25;5072325;28;20059;-72
2023/12/21 05:00:29;;;;;;;14.43;1.75;;;;;;;-146.27;86.45;32275.66;5069971;28;20086;-71
2023/12/21 05:02:55;;;;;;;13.82;1.80;;;;;;;-146.27;85.97;32287.53;5068158;28;20106;-71
2023/12/21 05:05:21;;;;;;;11.23;1.92;;;;;;;-146.27;85.29;32289.53;5071427;28;20035;-71
2023/12/21 05:07:47;;;;;;;13.52;1.80;;;;;;;-146.27;85.30;32259.78;5064139;28;20031;-72
2023/12/21 05:10:12;;;;;;;14.02;1.90;;;;;;;-146.27;85.45;32239.94;5070804;28;20030;-72
2023/12/21 05:12:38;;;;;;;12.50;2.45;;;;;;;-146.27;85.75;32210.19;5067071;28;20472;-71
2023/12/21 05:15:03;;;;;;;10.00;1.50;;;;;;;-146.27;86.46;32275.66;5076449;28;20491;-72
2023/12/21 05:17:29;;;;;;;14.48;1.42;;;;;;;-146.27;86.81;32319.28;5078510;28;20101;-72
2023/12/21 05:19:54;;;;;;;10.70;2.22;;;;;;;-146.27;86.25;32235.97;5070409;28;20028;-72
2023/12/21 05:22:19;;;;;;;11.05;1.92;;;;;;;-146.27;86.99;32307.38;5071544;28;20020;-71
2023/12/21 05:24:45;;;;;;;10.75;1.60;;;;;;;-146.27;88.76;32347.06;5073810;28;20490;-72
2023/12/21 05:27:10;;;;;;;7.32;2.33;;;;;;;-146.27;89.53;32353.00;5075944;28;20032;-71
2023/12/21 05:29:35;;;;;;;9.45;1.67;;;;;;;-146.27;89.83;32394.66;5068303;28;20032;-71
2023/12/21 05:32:01;;;;;;;10.20;2.05;;;;;;;-146.27;90.99;32430.38;5069524;28;20499;-71
2023/12/21 05:34:26;;;;;;;13.85;2.38;;;;;;;-146.27;91.28;32462.09;5060263;28;20546;-71
2023/12/21 05:36:51;;;;;;;14.88;2.47;;;;;;;-146.27;91.69;32450.22;5069322;28;20039;-72
2023/12/21 05:39:17;;;;;;;13.50;2.15;;;;;;;-146.27;91.04;32386.72;5067122;28;20048;-72
2023/12/21 05:41:42;;;;;;;28.92;2.45;;;;;;;-146.27;90.36;32386.72;5065799;28;20032;-72
2023/12/21 05:44:08;;;;;;;15.98;2.58;;;;;;;-146.27;90.39;32398.63;5067035;28;20103;-72
2023/12/21 05:46:33;;;;;;;13.98;1.80;;;;;;;-146.27;89.65;32358.97;5067554;28;20040;-72
2023/12/21 05:48:58;;;;;;;14.27;2.25;;;;;;;-146.27;88.79;32297.47;5067102;28;20105;-72
2023/12/21 05:51:24;;;;;;;25.45;2.70;;;;;;;-146.27;89.26;32378.78;5064630;28;20056;-72
2023/12/21 05:53:49;;;;;;;15.65;1.98;;;;;;;-146.27;88.67;32355.00;5075596;28;20044;-72
2023/12/21 05:56:14;;;;;;;12.57;1.83;;;;;;;-146.27;88.24;32303.41;5068683;28;20029;-73
2023/12/21 05:58:40;;;;;;;9.35;1.70;;;;;;;-146.27;87.05;32315.31;5068055;28;20028;-72
2023/12/21 06:01:05;;;;;;;14.65;2.35;;;;;;;-146.27;86.84;32335.16;5066432;28;20028;-72
2023/12/21 06:03:31;;;;;;;11.02;1.70;;;;;;;-146.27;86.46;32303.41;5067951;28;20415;-71
2023/12/21 06:05:56;;;;;;;14.02;1.88;;;;;;;-146.27;86.55;32263.75;5065816;28;20659;-71
2023/12/21 06:08:21;;;;;;;12.82;2.10;;;;;;;-146.27;85.88;32216.13;5068803;28;20702;-71
2023/12/21 06:10:47;;;;;;;12.95;2.17;;;;;;;-146.27;85.75;32259.78;5065759;28;20055;-72
2023/12/21 06:13:13;;;;;;;10.05;2.25;;;;;;;-146.27;85.46;32172.50;5066776;28;20025;-71
2023/12/21 06:15:38;;;;;;;9.35;2.30;;;;;;;-146.27;85.94;32267.72;5067586;28;20038;-72
2023/12/21 06:18:04;;;;;;;12.68;1.98;;;;;;;-146.27;85.04;32174.47;5071516;28;20143;-72
2023/12/21 06:20:30;;;;;;;15.20;2.17;;;;;;;-146.27;84.93;32144.72;5070192;28;20082;-71
2023/12/21 06:22:56;;;;;;;13.15;2.42;;;;;;;-146.27;84.67;32172.50;5067038;28;20068;-72
2023/12/21 06:25:21;;;;;;;13.32;1.88;;;;;;;-146.27;85.34;32247.88;5054770;28;20033;-71
2023/12/21 06:27:47;;;;;;;12.60;2.10;;;;;;;-146.27;84.20;32128.88;5067003;28;20150;-72
2023/12/21 06:30:12;;;;;;;20.30;1.80;;;;;;;-146.27;84.47;32172.50;5068329;28;20031;-72
2023/12/21 06:32:38;;;;;;;10.95;2.33;;;;;;;-146.27;84.07;32204.25;5070862;28;20494;-70
2023/12/21 06:35:04;;;;;;;10.07;1.52;;;;;;;-146.27;84.45;32247.88;5069163;28;20047;-71
2023/12/21 06:37:29;;;;;;;12.63;2.08;;;;;;;-146.27;83.38;32184.41;5062947;28;20100;-71
2023/12/21 06:39:55;;;;;;;8.88;1.83;;;;;;;-146.27;83.70;32235.97;5068023;28;20171;-71
2023/12/21 06:42:20;;;;;;;12.25;1.83;;;;;;;-146.27;83.49;32196.31;5065105;28;20029;-71
2023/12/21 06:44:45;;;;;;;14.90;1.33;;;;;;;-146.27;83.04;32186.38;5068021;28;20024;-71
2023/12/21 06:47:11;;;;;;;7.53;1.23;;;;;;;-146.27;83.23;32204.25;5069829;28;20039;-72
2023/12/21 06:49:36;;;;;;;19.85;1.70;;;;;;;-146.27;82.34;32134.81;5070751;28;20036;-71
2023/12/21 06:52:01;;;;;;;6.68;1.25;;;;;;;-146.27;82.66;32172.50;5071114;28;20066;-71
2023/12/21 06:54:27;;;;;;;10.45;1.90;;;;;;;-146.27;82.44;32166.56;5079797;28;20166;-71
2023/12/21 06:56:52;;;;;;;12.02;2.15;;;;;;;-146.27;82.19;32136.78;5069777;28;20055;-71
2023/12/21 06:59:18;;;;;;;11.43;1.88;;;;;;;-146.27;82.49;32114.97;5068735;28;20027;-72
2023/12/21 07:01:43;;;;;;;14.10;1.67;;;;;;;-146.27;82.71;32103.06;5062285;28;20472;-72
2023/12/21 07:04:09;;;;;;;7.75;1.40;;;;;;;-146.27;84.17;32247.88;5069985;28;20021;-72
2023/12/21 07:06:35;;;;;;;8.65;1.30;;;;;;;-146.27;85.32;32279.63;5064772;28;20028;-71
2023/12/21 07:09:00;;;;;;;16.17;1.65;;;;;;;-146.27;87.21;32313.34;5072899;28;20203;-71
2023/12/21 07:11:26;;;;;;;13.65;1.73;;;;;;;-146.27;87.37;32295.47;5072732;28;20479;-72
2023/12/21 07:13:51;;;;;;;11.60;2.28;;;;;;;-146.27;89.37;32390.69;5072630;28;20021;-72
2023/12/21 07:16:17;;;;;;;13.50;1.70;;;;;;;-146.27;89.39;32414.50;5076617;28;20032;-73
2023/12/21 07:18:42;;;;;;;9.63;2.05;;;;;;;-146.27;88.79;32291.50;5070959;28;20095;-72
2023/12/21 07:21:08;;;;;;;18.48;2.22;;;;;;;-146.27;89.59;32374.81;5066702;28;20052;-71
2023/12/21 07:23:33;;;;;;;6.43;1.48;;;;;;;-146.27;89.61;32430.38;5068454;28;20127;-70
2023/12/21 07:25:59;;;;;;;7.25;1.48;;;;;;;-146.27;89.54;32343.09;5067097;28;20040;-72
2023/12/21 07:28:25;;;;;;;15.60;1.85;;;;;;;-146.27;90.07;32398.63;5069996;28;20021;-71
2023/12/21 07:30:51;;;;;;;14.30;2.53;;;;;;;-146.27;90.74;32477.97;5067244;28;20020;-71
2023/12/21 07:33:16;;;;;;;21.13;2.58;;;;;;;-146.27;91.66;32521.63;5082858;28;20035;-71
2023/12/21 07:35:42;;;;;;;14.32;3.35;;;;;;;-146.27;90.96;32481.94;5064192;28;20032;-71
2023/12/21 07:38:07;;;;;;;9.18;1.60;;;;;;;-146.27;91.10;32426.41;5069970;28;20030;-71
2023/12/21 07:40:32;;;;;;;12.50;1.75;;;;;;;-146.27;91.12;32366.91;5079696;28;20107;-71
2023/12/21 07:42:58;;;;;;;9.00;1.48;;;;;;;-146.27;90.39;32418.47;5065020;28;20024;-71
2023/12/21 07:45:23;;;;;;;14.07;1.65;;;;;;;-146.27;90.64;32483.94;5059939;28;20052;-70
2023/12/21 07:47:49;;;;;;;16.05;1.90;;;;;;;-146.27;90.24;32394.66;5065989;28;20024;-70
2023/12/21 07:50:14;;;;;;;7.82;1.83;;;;;;;-146.27;89.85;32400.63;5070878;28;20098;-70
2023/12/21 07:52:39;;;;;;;11.82;2.55;;;;;;;-146.27;88.68;32345.06;5070618;28;20032;-70
2023/12/21 07:55:06;;;;;;;13.20;2.08;;;;;;;-146.27;87.88;32291.50;5071616;28;20461;-70
2023/12/21 07:57:32;;;;;;;14.48;1.70;;;;;;;-146.27;87.90;32325.25;5080737;28;20024;-70
2023/12/21 07:59:57;;;;;;;15.98;2.33;;;;;;;-146.27;87.90;32311.34;5064476;28;20032;-70
2023/12/21 08:02:22;;;;;;;10.70;1.40;;;;;;;-146.27;86.77;32291.50;5071975;28;20055;-70
2023/12/21 08:04:48;;;;;;;17.90;2.08;;;;;;;-146.27;86.57;32212.16;5072149;28;20064;-70
2023/12/21 08:07:13;;;;;;;12.05;1.77;;;;;;;-146.27;86.69;32251.84;5060412;28;20127;-70
2023/12/21 08:09:39;;;;;;;14.32;2.00;;;;;;;-146.27;85.48;32196.31;5072491;28;20033;-72
2023/12/21 08:12:04;;;;;;;14.35;2.55;;;;;;;-146.27;85.10;32156.63;5066681;28;20021;-71
2023/12/21 08:14:31;;;;;;;10.90;1.48;;;;;;;-146.27;84.67;32184.41;5051654;28;20029;-70
2023/12/21 08:16:59;;;;;;;23.05;2.10;;;;;;;-146.27;84.62;32134.81;5084806;28;20028;-70
2023/12/21 08:19:25;;;;;;;8.18;1.30;;;;;;;-146.27;85.60;32243.91;5075780;28;20029;-70
2023/12/21 08:21:50;;;;;;;16.45;2.88;;;;;;;-146.27;83.85;32103.06;5085044;28;20098;-71
2023/12/21 08:24:16;;;;;;;9.63;1.40;;;;;;;-146.27;84.47;32188.38;5087023;28;20017;-69
2023/12/21 08:26:41;;;;;;;14.15;2.05;;;;;;;-146.27;84.50;32160.59;5082230;28;20072;-69
2023/12/21 08:29:07;;;;;;;11.10;1.27;;;;;;;-146.27;84.99;32239.94;5073963;28;20032;-70
2023/12/21 08:31:32;;;;;;;12.13;1.65;;;;;;;-146.27;84.50;32120.94;5074005;28;20508;-69
2023/12/21 08:33:57;;;;;;;15.00;1.80;;;;;;;-146.27;84.87;32180.44;5085137;28;20106;-69
2023/12/21 08:36:23;;;;;;;19.92;2.08;;;;;;;-146.27;85.49;32142.75;5086822;28;20434;-70
2023/12/21 08:38:48;;;;;;;11.77;2.30;;;;;;;-146.27;86.20;32184.41;5078043;28;20030;-70
2023/12/21 08:41:13;;;;;;;15.25;2.28;;;;;;;-146.27;86.71;32271.69;5061887;28;20025;-69
2023/12/21 08:43:39;;;;;;;11.95;1.60;;;;;;;-146.27;86.13;32176.47;5076523;28;20110;-69
2023/12/21 08:46:04;;;;;;;11.18;2.33;;;;;;;-146.27;86.59;32277.63;5072426;28;20053;-68
2023/12/21 08:48:29;;;;;;;11.50;1.77;;;;;;;-146.27;86.28;32198.28;5065598;28;21131;-69
2023/12/21 08:50:55;;;;;;;19.98;2.53;;;;;;;-146.27;86.43;32196.31;5067286;28;20460;-69
2023/12/21 08:53:21;;;;;;;9.18;1.83;;;;;;;-146.27;87.05;32251.84;5061241;28;20067;-71
2023/12/21 08:55:46;;;;;;;9.40;1.90;;;;;;;-146.27;87.24;32295.47;5070058;28;20051;-69
2023/12/21 08:58:11;;;;;;;18.65;1.95;;;;;;;-146.27;87.43;32218.13;5064926;28;20028;-69
2023/12/21 09:00:37;;;;;;;15.60;1.80;;;;;;;-146.27;86.67;32120.94;5056454;28;20101;-69
2023/12/21 09:03:03;;;;;;;13.93;1.83;;;;;;;-146.27;87.83;32134.81;5078889;28;20509;-69
2023/12/21 09:05:28;;;;;;;10.07;1.60;;;;;;;-146.27;87.36;32140.75;5070997;28;20034;-69
2023/12/21 09:07:54;;;;;;;17.77;2.63;;;;;;;-146.27;88.81;32226.06;5073133;28;20761;-69
2023/12/21 09:10:19;;;;;;;16.40;2.25;;;;;;;-146.27;88.55;32142.75;5064696;28;20525;-69
2023/12/21 09:12:45;;;;;;;18.25;2.08;;;;;;;-146.27;89.52;32216.13;5068491;28;20032;-69
2023/12/21 09:15:10;;;;;;;10.27;1.52;;;;;;;-146.27;90.66;32295.47;5069653;28;20059;-68
2023/12/21 09:17:36;;;;;;;10.82;1.60;;;;;;;-146.27;91.55;32184.41;5066228;28;20057;-70
2023/12/21 09:20:02;;;;;;;12.73;1.65;;;;;;;-146.27;91.13;32232.00;5069056;28;20118;-68
2023/12/21 09:22:28;;;;;;;22.23;3.35;;;;;;;-146.27;91.19;32144.72;5068531;28;20031;-68
2023/12/21 09:24:54;;;;;;;16.05;1.63;;;;;;;-146.27;92.38;32247.88;5071310;28;20053;-69
2023/12/21 09:27:19;;;;;;;11.65;1.83;;;;;;;-146.27;92.45;32287.53;5067657;28;20028;-68
2023/12/21 09:29:45;;;;;;;6.78;1.73;;;;;;;-146.27;93.28;32347.06;5069623;28;20032;-70
2023/12/21 09:32:11;;;;;;;9.45;1.15;;;;;;;-146.27;92.20;32224.06;5072885;28;20054;-69
2023/12/21 09:34:36;;;;;;;12.48;1.70;;;;;;;-146.27;91.74;32218.13;5071262;28;20013;-69
2023/12/21 09:37:05;;;;;;;9.27;1.90;;;;;;;-146.27;91.58;32243.91;5068200;28;20028;-70
2023/12/21 09:39:31;;;;;;;13.57;1.85;;;;;;;-146.27;91.83;32287.53;5071123;28;20089;-70
2023/12/21 09:42:00;;;;;;;14.07;1.55;;;;;;;-146.27;90.54;32156.63;5068314;28;20024;-71
2023/12/21 09:44:29;;;;;;;7.43;1.45;;;;;;;-146.27;90.41;32212.16;5071989;28;20032;-70
2023/12/21 09:46:56;;;;;;;17.60;2.33;;;;;;;-146.27;89.13;32122.91;5059873;28;20032;-70
2023/12/21 09:49:22;;;;;;;11.43;1.35;;;;;;;-146.27;89.67;32073.31;5068596;28;20029;-70
2023/12/21 09:51:49;;;;;;;13.95;1.65;;;;;;;-146.27;89.00;32126.88;5069196;28;20361;-70
2023/12/21 09:54:17;;;;;;;11.32;1.60;;;;;;;-146.27;89.26;32168.53;5077071;28;20513;-71
2023/12/21 09:56:44;;;;;;;14.13;1.80;;;;;;;-146.27;88.42;32073.31;5069884;28;20027;-70
2023/12/21 09:59:10;;;;;;;6.85;1.48;;;;;;;-146.27;88.02;32067.38;5060443;28;20032;-70
2023/12/21 10:01:35;;;;;;;18.80;1.85;;;;;;;-146.27;87.71;32063.41;5068687;28;20332;-71
2023/12/21 10:04:01;;;;;;;16.98;1.80;;;;;;;-146.27;87.73;32033.66;5069917;28;20107;-69
2023/12/21 10:06:26;;;;;;;16.10;2.00;;;;;;;-146.27;87.77;32005.88;5073622;28;20571;-70
2023/12/21 10:08:52;;;;;;;11.50;1.30;;;;;;;-146.27;88.02;32116.97;5066906;28;20024;-70
2023/12/21 10:11:19;;;;;;;6.97;1.30;;;;;;;-146.27;87.29;31956.31;5069148;28;20029;-71
2023/12/21 10:13:48;;;;;;;9.50;2.35;;;;;;;-146.27;87.59;31970.19;5069191;28;20100;-69
2023/12/21 10:16:13;;;;;;;7.90;2.17;;;;;;;-146.27;88.24;32136.78;5078730;28;20063;-70
2023/12/21 10:18:40;;;;;;;8.35;1.20;;;;;;;-146.27;88.50;32067.38;5074450;28;20540;-70
2023/12/21 10:21:08;;;;;;;9.35;1.70;;;;;;;-146.27;88.97;32113.00;5071586;28;20469;-71
2023/12/21 10:23:33;;;;;;;21.30;2.70;;;;;;;-146.27;89.94;32208.22;5074097;28;20110;-70
2023/12/21 10:25:58;;;;;;;18.02;2.47;;;;;;;-146.27;90.26;32101.09;5066468;28;20040;-70
2023/12/21 10:28:24;;;;;;;8.90;1.50;;;;;;;-146.27;91.55;32150.69;5066416;28;20059;-70
2023/12/21 10:30:54;;;;;;;19.05;2.83;;;;;;;-146.27;91.06;32164.56;5074432;28;20024;-69
2023/12/21 10:33:19;;;;;;;18.55;2.33;;;;;;;-146.27;92.44;32237.97;5071154;28;20032;-70
2023/12/21 10:35:45;;;;;;;14.07;2.75;;;;;;;-146.27;92.50;32224.06;5081016;28;20035;-70
2023/12/21 10:38:10;;;;;;;12.13;1.67;;;;;;;-146.27;92.56;32208.22;5061643;28;20112;-72
2023/12/21 10:40:36;;;;;;;16.98;2.88;;;;;;;-146.27;92.07;32184.41;5059123;28;20396;-70
2023/12/21 10:43:02;;;;;;;17.77;3.20;;;;;;;-146.27;92.04;32232.00;5058810;28;20507;-71
2023/12/21 10:45:28;;;;;;;11.25;2.20;;;;;;;-146.27;92.39;32234.00;5067292;28;20029;-70
2023/12/21 10:47:57;;;;;;;19.42;2.90;;;;;;;-146.27;92.51;32176.47;5076283;28;20454;-69
2023/12/21 10:50:24;;;;;;;12.90;2.63;;;;;;;-146.27;92.98;32228.03;5059542;28;20031;-70
2023/12/21 10:52:50;;;;;;;19.23;3.17;;;;;;;-146.27;92.19;32158.63;5059342;28;20134;-70
2023/12/21 10:55:16;;;;;;;11.13;1.35;;;;;;;-146.27;92.42;32192.34;5067505;28;20074;-72
2023/12/21 10:57:43;;;;;;;15.57;2.65;;;;;;;-146.27;92.76;32214.16;5068591;28;20739;-70
2023/12/21 11:00:15;;;;;;;24.20;2.50;;;;;;;-146.27;92.26;32156.63;5069341;28;20031;-70
2023/12/21 11:02:47;;;;;;;17.25;3.10;;;;;;;-146.27;92.18;32184.41;5072355;28;20454;-70